Time;durP1;ratioP1;P1;durP2;ratioP2;P2;SDS_P1;SDS_P2;PMS_P1;PMS_P2;Temp;Humidity;BMP_temperature;BMP_pressure;BME280_temperature;BME280_humidity;BME280_pressure;Samples;Min_cycle;Max_cycle;Signal;HPM_P1;HPM_P2
2022/07/11 00:01:46;;;;;;;12.93;7.18;;;19.00;99.90;;;;;;5074381;28;20028;-76
2022/07/11 00:04:12;;;;;;;18.38;7.07;;;19.40;99.90;;;;;;5073172;28;20526;-76
2022/07/11 00:06:37;;;;;;;13.77;6.95;;;19.50;99.90;;;;;;5073069;28;20469;-76
2022/07/11 00:09:03;;;;;;;9.60;6.10;;;19.70;99.90;;;;;;5056321;28;20036;-76
2022/07/11 00:11:29;;;;;;;12.77;6.25;;;19.00;99.90;;;;;;5073102;28;20062;-76
2022/07/11 00:13:55;;;;;;;9.18;6.88;;;18.50;99.90;;;;;;5074194;28;20093;-76
2022/07/11 00:16:20;;;;;;;11.45;7.18;;;18.30;99.90;;;;;;5073797;28;20052;-76
2022/07/11 00:18:46;;;;;;;11.43;7.53;;;18.40;99.90;;;;;;5074258;28;20040;-76
2022/07/11 00:21:12;;;;;;;10.82;7.35;;;18.50;99.90;;;;;;5072953;28;20021;-76
2022/07/11 00:23:38;;;;;;;13.95;8.07;;;18.80;99.90;;;;;;5074010;28;20029;-76
2022/07/11 00:26:04;;;;;;;11.80;7.78;;;19.10;99.90;;;;;;5073929;28;20025;-76
2022/07/11 00:28:30;;;;;;;14.05;8.05;;;19.20;99.90;;;;;;5073758;28;20064;-76
2022/07/11 00:30:56;;;;;;;14.63;8.65;;;18.70;99.90;;;;;;5071744;28;20051;-76
2022/07/11 00:33:21;;;;;;;16.67;9.10;;;18.50;99.90;;;;;;5073715;28;20040;-76
2022/07/11 00:35:47;;;;;;;14.32;8.98;;;18.60;99.90;;;;;;5072369;28;20024;-76
2022/07/11 00:38:13;;;;;;;13.20;8.07;;;18.60;99.90;;;;;;5074030;28;20058;-76
2022/07/11 00:40:39;;;;;;;14.40;9.18;;;18.80;99.90;;;;;;5073494;28;20029;-76
2022/07/11 00:43:06;;;;;;;21.02;9.88;;;18.60;99.90;;;;;;5073806;28;20024;-76
2022/07/11 00:45:32;;;;;;;15.38;9.10;;;18.80;99.90;;;;;;5073172;28;20457;-76
2022/07/11 00:47:59;;;;;;;15.85;10.27;;;19.20;99.90;;;;;;5072594;28;20107;-76
2022/07/11 00:50:25;;;;;;;12.25;10.02;;;19.20;99.90;;;;;;5073311;28;20078;-76
2022/07/11 00:52:51;;;;;;;14.00;10.25;;;18.80;99.90;;;;;;5072384;28;20036;-76
2022/07/11 00:55:19;;;;;;;17.63;11.82;;;18.70;99.90;;;;;;5062439;28;20032;-76
2022/07/11 00:57:46;;;;;;;16.40;11.65;;;18.60;99.90;;;;;;5069238;28;20036;-76
2022/07/11 01:00:12;;;;;;;21.15;12.77;;;18.60;99.90;;;;;;5072970;28;20460;-76
2022/07/11 01:02:39;;;;;;;19.20;12.77;;;18.60;99.90;;;;;;5073424;28;20028;-76
2022/07/11 01:05:05;;;;;;;18.48;12.38;;;18.50;99.90;;;;;;5072163;28;20358;-76
2022/07/11 01:07:32;;;;;;;17.92;12.80;;;18.50;99.90;;;;;;5073398;28;20028;-76
2022/07/11 01:09:58;;;;;;;16.85;11.80;;;18.40;99.90;;;;;;5071885;28;20032;-76
2022/07/11 01:12:24;;;;;;;14.57;13.07;;;18.40;99.90;;;;;;5073047;28;20017;-76
2022/07/11 01:14:54;;;;;;;22.33;14.57;;;18.50;99.90;;;;;;5072808;28;20358;-76
2022/07/11 01:17:20;;;;;;;17.38;12.82;;;18.50;99.90;;;;;;5073119;28;20024;-76
2022/07/11 01:19:46;;;;;;;18.70;13.27;;;18.90;99.90;;;;;;5073193;28;20048;-76
2022/07/11 01:22:14;;;;;;;19.77;14.00;;;18.50;99.90;;;;;;5073065;28;20037;-76
2022/07/11 01:24:44;;;;;;;20.73;13.90;;;18.90;99.90;;;;;;5072745;28;20120;-76
2022/07/11 01:27:12;;;;;;;24.60;13.90;;;18.90;99.90;;;;;;5073057;28;20032;-75
2022/07/11 01:29:39;;;;;;;19.77;13.43;;;18.40;99.90;;;;;;5072819;28;20037;-76
2022/07/11 01:32:07;;;;;;;17.60;14.93;;;18.70;99.90;;;;;;5072784;28;20037;-76
2022/07/11 01:34:33;;;;;;;28.90;15.25;;;18.40;99.90;;;;;;5071578;28;20032;-75
2022/07/11 01:36:59;;;;;;;18.92;14.20;;;18.00;99.90;;;;;;5072578;28;20028;-75
2022/07/11 01:39:27;;;;;;;20.83;15.15;;;17.80;99.90;;;;;;5072921;28;20044;-75
2022/07/11 01:41:53;;;;;;;24.83;16.05;;;17.70;99.90;;;;;;5072146;28;20044;-75
2022/07/11 01:44:19;;;;;;;20.30;15.52;;;17.80;99.90;;;;;;5072121;28;20020;-75
2022/07/11 01:46:44;;;;;;;21.85;15.70;;;18.00;99.90;;;;;;5072742;28;20476;-75
2022/07/11 01:49:10;;;;;;;23.05;14.75;;;17.90;99.90;;;;;;5072755;28;20017;-75
2022/07/11 01:51:36;;;;;;;21.92;16.20;;;17.70;99.90;;;;;;5072574;28;20032;-75
2022/07/11 01:54:02;;;;;;;28.60;15.63;;;17.50;99.90;;;;;;5054292;28;20039;-75
2022/07/11 01:56:29;;;;;;;24.15;16.85;;;17.10;99.90;;;;;;5071018;28;20021;-76
2022/07/11 01:58:54;;;;;;;28.38;18.13;;;17.00;99.90;;;;;;5072766;28;20029;-76
2022/07/11 02:01:20;;;;;;;27.40;18.77;;;17.00;99.90;;;;;;5071246;28;20039;-75
2022/07/11 02:03:46;;;;;;;28.00;19.05;;;17.40;99.90;;;;;;5072334;28;20115;-76
2022/07/11 02:06:12;;;;;;;27.25;17.98;;;17.60;99.90;;;;;;5072557;28;20531;-75
2022/07/11 02:08:37;;;;;;;30.50;18.38;;;17.60;99.90;;;;;;5072439;28;20074;-75
2022/07/11 02:11:03;;;;;;;23.38;16.38;;;17.80;99.90;;;;;;5072404;28;20094;-76
2022/07/11 02:13:29;;;;;;;25.13;18.15;;;17.90;99.90;;;;;;5070902;28;20099;-75
2022/07/11 02:15:55;;;;;;;25.67;18.92;;;18.20;99.90;;;;;;5072581;28;20442;-75
2022/07/11 02:18:21;;;;;;;24.33;18.00;;;18.20;99.90;;;;;;5072468;28;20032;-76
2022/07/11 02:20:48;;;;;;;22.45;18.60;;;18.30;99.90;;;;;;5071299;28;20028;-74
2022/07/11 02:23:15;;;;;;;24.63;18.77;;;18.10;99.90;;;;;;5072219;28;20079;-74
2022/07/11 02:25:40;;;;;;;30.63;20.75;;;17.60;99.90;;;;;;5072244;28;20480;-74
2022/07/11 02:28:08;;;;;;;29.05;20.30;;;17.20;99.90;;;;;;5072372;28;20032;-74
2022/07/11 02:30:35;;;;;;;23.63;19.75;;;17.40;99.90;;;;;;5054429;28;20097;-74
2022/07/11 02:33:01;;;;;;;26.02;20.08;;;17.50;99.90;;;;;;5072044;28;20036;-74
2022/07/11 02:35:26;;;;;;;26.27;21.58;;;17.60;99.90;;;;;;5072164;28;20506;-74
2022/07/11 02:37:52;;;;;;;32.58;21.92;;;17.70;99.90;;;;;;5072366;28;20500;-74
2022/07/11 02:40:18;;;;;;;27.08;20.42;;;17.80;99.90;;;;;;5072006;28;20495;-74
2022/07/11 02:42:44;;;;;;;30.35;20.52;;;17.90;99.90;;;;;;5072140;28;20582;-74
2022/07/11 02:45:10;;;;;;;24.75;20.15;;;18.20;99.90;;;;;;5072090;28;20021;-74
2022/07/11 02:47:40;;;;;;;28.02;20.83;;;18.30;99.90;;;;;;5072195;28;20024;-74
2022/07/11 02:50:08;;;;;;;25.00;20.83;;;18.30;99.90;;;;;;5071145;28;20021;-75
2022/07/11 02:52:34;;;;;;;25.67;19.25;;;18.00;99.90;;;;;;5071721;28;20382;-74
2022/07/11 02:55:00;;;;;;;28.58;20.33;;;17.50;99.90;;;;;;5062690;28;20029;-74
2022/07/11 02:57:26;;;;;;;24.77;20.00;;;17.20;99.90;;;;;;5057210;28;20040;-74
2022/07/11 02:59:52;;;;;;;29.90;20.63;;;17.10;99.90;;;;;;5055417;28;20031;-75
2022/07/11 03:02:18;;;;;;;28.40;20.90;;;16.90;99.90;;;;;;5055487;28;20021;-74
2022/07/11 03:04:44;;;;;;;28.02;21.55;;;16.80;99.90;;;;;;5055229;28;20025;-74
2022/07/11 03:07:10;;;;;;;24.85;22.05;;;16.80;99.90;;;;;;5054348;28;20035;-74
2022/07/11 03:09:35;;;;;;;29.33;20.58;;;17.20;99.90;;;;;;5055057;28;20082;-74
2022/07/11 03:12:01;;;;;;;32.67;22.13;;;17.20;99.90;;;;;;5055430;28;20052;-74
2022/07/11 03:14:27;;;;;;;30.73;21.17;;;17.20;99.90;;;;;;5055326;28;20064;-75
2022/07/11 03:16:54;;;;;;;24.60;20.13;;;17.30;99.90;;;;;;5055254;28;20126;-75
2022/07/11 03:19:20;;;;;;;29.80;20.85;;;17.00;99.90;;;;;;5055443;28;20017;-75
2022/07/11 03:21:45;;;;;;;31.13;22.42;;;16.80;99.90;;;;;;5055129;28;20393;-74
2022/07/11 03:24:11;;;;;;;25.13;20.48;;;16.90;99.90;;;;;;5054823;28;20355;-74
2022/07/11 03:26:38;;;;;;;36.63;22.45;;;17.00;99.90;;;;;;5053857;28;20033;-77
2022/07/11 03:29:04;;;;;;;28.90;22.17;;;17.30;99.90;;;;;;5055058;28;20477;-74
2022/07/11 03:31:30;;;;;;;29.42;21.35;;;17.50;99.90;;;;;;5054130;28;20025;-74
2022/07/11 03:33:56;;;;;;;26.38;21.15;;;17.30;99.90;;;;;;5054893;28;20079;-74
2022/07/11 03:36:22;;;;;;;24.73;20.52;;;17.50;99.90;;;;;;5053789;28;20021;-74
2022/07/11 03:38:51;;;;;;;25.90;20.58;;;17.70;99.90;;;;;;5054314;28;20021;-74
2022/07/11 03:41:16;;;;;;;27.33;20.70;;;17.90;99.90;;;;;;5054485;28;20094;-74
2022/07/11 03:43:42;;;;;;;37.40;21.42;;;17.60;99.90;;;;;;5054133;28;20045;-75
2022/07/11 03:46:08;;;;;;;26.35;20.50;;;17.60;99.90;;;;;;5053491;28;20060;-74
2022/07/11 03:48:34;;;;;;;28.08;19.75;;;17.50;99.90;;;;;;5054602;28;20021;-74
2022/07/11 03:51:00;;;;;;;30.45;19.10;;;17.20;99.90;;;;;;5054559;28;20025;-74
2022/07/11 03:53:26;;;;;;;23.83;18.52;;;17.20;99.90;;;;;;5054506;28;20040;-75
2022/07/11 03:55:52;;;;;;;28.13;19.88;;;17.40;99.90;;;;;;5054426;28;20017;-74
2022/07/11 03:58:18;;;;;;;26.15;18.83;;;17.60;99.90;;;;;;5054819;28;20082;-74
2022/07/11 04:00:43;;;;;;;26.35;19.98;;;17.90;99.90;;;;;;5054144;28;20021;-77
2022/07/11 04:03:10;;;;;;;26.33;19.00;;;17.80;99.90;;;;;;5054541;28;20036;-77
2022/07/11 04:05:36;;;;;;;28.33;19.08;;;17.40;99.90;;;;;;5052156;28;20450;-77
2022/07/11 04:08:02;;;;;;;27.02;18.70;;;17.30;99.90;;;;;;5052772;28;20060;-77
2022/07/11 04:10:28;;;;;;;26.42;18.27;;;17.50;99.90;;;;;;5053102;28;20458;-74
2022/07/11 04:12:54;;;;;;;25.55;17.85;;;17.70;99.90;;;;;;5054232;28;20043;-74
2022/07/11 04:15:20;;;;;;;23.33;18.08;;;17.90;99.90;;;;;;5053875;28;20017;-74
2022/07/11 04:17:46;;;;;;;23.52;19.65;;;18.00;99.90;;;;;;5054199;28;20051;-74
2022/07/11 04:20:13;;;;;;;23.00;18.63;;;18.30;99.90;;;;;;5054339;28;20114;-74
2022/07/11 04:22:39;;;;;;;26.60;18.90;;;18.10;99.90;;;;;;5054034;28;20035;-74
2022/07/11 04:25:05;;;;;;;23.13;18.40;;;17.90;99.90;;;;;;5053728;28;20025;-75
2022/07/11 04:27:30;;;;;;;26.25;20.20;;;17.90;99.90;;;;;;5054116;28;20044;-74
2022/07/11 04:29:56;;;;;;;25.50;18.67;;;18.20;99.90;;;;;;5053730;28;20017;-74
2022/07/11 04:32:22;;;;;;;25.83;19.10;;;18.10;99.90;;;;;;5054057;28;20029;-75
2022/07/11 04:34:48;;;;;;;27.45;18.42;;;18.30;99.90;;;;;;5053407;28;20436;-75
2022/07/11 04:37:14;;;;;;;24.70;18.33;;;18.50;99.90;;;;;;5052480;28;20005;-75
2022/07/11 04:39:40;;;;;;;29.00;17.67;;;18.50;99.90;;;;;;5052585;28;20107;-74
2022/07/11 04:42:06;;;;;;;22.20;16.05;;;18.60;99.90;;;;;;5053793;28;20060;-74
2022/07/11 04:44:33;;;;;;;22.63;14.80;;;18.70;99.90;;;;;;5052478;28;20043;-74
2022/07/11 04:46:58;;;;;;;20.17;14.35;;;18.60;99.90;;;;;;5052256;28;20433;-75
2022/07/11 04:49:24;;;;;;;20.67;13.90;;;18.60;99.90;;;;;;5052433;28;20119;-75
2022/07/11 04:51:50;;;;;;;22.52;12.75;;;18.60;99.90;;;;;;5051836;28;20504;-74
2022/07/11 04:54:16;;;;;;;17.25;11.75;;;18.30;99.90;;;;;;5053577;28;20021;-74
2022/07/11 04:56:42;;;;;;;20.38;11.65;;;18.00;99.90;;;;;;5053391;28;20503;-74
2022/07/11 04:59:07;;;;;;;25.15;10.57;;;18.30;99.90;;;;;;5053369;28;20373;-77
2022/07/11 05:01:34;;;;;;;31.77;11.80;;;18.50;99.90;;;;;;5053534;28;20029;-74
2022/07/11 05:04:00;;;;;;;19.20;12.38;;;18.60;99.90;;;;;;5053223;28;20024;-74
2022/07/11 05:06:27;;;;;;;22.67;13.68;;;18.80;99.90;;;;;;5051639;28;20535;-75
2022/07/11 05:08:54;;;;;;;27.30;13.52;;;18.90;99.90;;;;;;5053272;28;20025;-75
2022/07/11 05:11:20;;;;;;;23.67;14.68;;;19.00;99.90;;;;;;5053135;28;20019;-75
2022/07/11 05:13:46;;;;;;;21.02;14.00;;;18.90;99.90;;;;;;5053086;28;20037;-75
2022/07/11 05:16:12;;;;;;;30.17;14.85;;;18.70;99.90;;;;;;5052913;28;20060;-75
2022/07/11 05:18:38;;;;;;;23.75;14.20;;;18.80;99.90;;;;;;5052952;28;20035;-75
2022/07/11 05:21:05;;;;;;;27.35;12.98;;;19.10;99.90;;;;;;5052738;28;20108;-75
2022/07/11 05:23:30;;;;;;;23.83;13.38;;;19.10;99.90;;;;;;5051764;28;20013;-75
2022/07/11 05:25:56;;;;;;;22.92;12.55;;;19.10;99.90;;;;;;5052836;28;20032;-75
2022/07/11 05:28:22;;;;;;;19.15;12.85;;;19.40;99.90;;;;;;5053071;28;20036;-75
2022/07/11 05:30:48;;;;;;;20.45;13.93;;;19.50;99.90;;;;;;5052782;28;20025;-75
2022/07/11 05:33:14;;;;;;;20.42;12.93;;;19.60;99.90;;;;;;5052707;28;20043;-75
2022/07/11 05:35:40;;;;;;;24.67;13.85;;;19.40;99.90;;;;;;5052550;28;20017;-75
2022/07/11 05:38:06;;;;;;;16.02;11.55;;;19.70;99.90;;;;;;5052825;28;20032;-75
2022/07/11 05:40:31;;;;;;;15.00;10.93;;;19.90;99.90;;;;;;5052720;28;20070;-75
2022/07/11 05:42:57;;;;;;;12.52;9.32;;;20.10;99.90;;;;;;5052688;28;20032;-75
2022/07/11 05:45:23;;;;;;;13.68;9.77;;;20.00;99.90;;;;;;5051508;28;20107;-75
2022/07/11 05:47:48;;;;;;;15.55;11.82;;;19.90;99.90;;;;;;5052704;28;20028;-74
2022/07/11 05:50:14;;;;;;;20.75;11.63;;;19.70;99.90;;;;;;5052229;28;20465;-75
2022/07/11 05:52:40;;;;;;;19.20;13.90;;;19.70;99.90;;;;;;5052671;28;20033;-75
2022/07/11 05:55:06;;;;;;;18.88;11.70;;;19.90;99.90;;;;;;5052664;28;20021;-75
2022/07/11 05:57:32;;;;;;;16.67;12.15;;;19.70;99.90;;;;;;5052424;28;20066;-75
2022/07/11 05:59:57;;;;;;;20.45;12.80;;;19.70;99.90;;;;;;5052771;28;20469;-75
2022/07/11 06:02:24;;;;;;;16.48;12.95;;;19.70;99.90;;;;;;5052496;28;20453;-75
2022/07/11 06:04:50;;;;;;;15.73;12.82;;;19.80;99.90;;;;;;5034515;28;20025;-75
2022/07/11 06:08:40;;;;;;;19.27;12.93;;;19.80;99.90;;;;;;5051274;28;20025;-75
2022/07/11 06:10:01;;;;;;;23.63;14.50;;;19.60;99.90;;;;;;5052463;28;20045;-75
2022/07/11 06:12:27;;;;;;;19.40;14.95;;;19.70;99.90;;;;;;5051205;28;20027;-75
2022/07/11 06:14:53;;;;;;;20.40;16.40;;;19.90;99.90;;;;;;5052410;28;20415;-75
2022/07/11 06:17:18;;;;;;;19.30;15.45;;;19.80;99.90;;;;;;5052175;28;20013;-75
2022/07/11 06:19:44;;;;;;;22.65;17.17;;;19.90;99.90;;;;;;5050556;28;20752;-75
2022/07/11 06:22:10;;;;;;;21.65;17.52;;;20.00;99.90;;;;;;5052437;28;20033;-73
2022/07/11 06:24:35;;;;;;;26.27;19.73;;;19.70;99.90;;;;;;5052259;28;20044;-77
2022/07/11 06:27:01;;;;;;;28.27;21.15;;;19.60;99.90;;;;;;5052143;28;20032;-73
2022/07/11 06:29:27;;;;;;;33.05;22.05;;;19.90;99.90;;;;;;5054343;28;20374;-75
2022/07/11 06:31:53;;;;;;;25.58;21.52;;;19.90;99.90;;;;;;5055998;28;20381;-75
2022/07/11 06:34:19;;;;;;;28.67;19.23;;;20.20;99.90;;;;;;5054816;28;20111;-75
2022/07/11 06:36:44;;;;;;;24.25;19.75;;;20.10;99.90;;;;;;5054682;28;20465;-74
2022/07/11 06:39:10;;;;;;;24.63;21.52;;;20.30;99.90;;;;;;5055976;28;20035;-75
2022/07/11 06:41:36;;;;;;;35.03;22.98;;;20.40;99.90;;;;;;5056100;28;20024;-74
2022/07/11 06:44:02;;;;;;;25.42;20.42;;;20.60;99.90;;;;;;5055967;28;20017;-74
2022/07/11 06:46:28;;;;;;;28.98;22.20;;;19.90;99.90;;;;;;5055773;28;20476;-75
2022/07/11 06:48:54;;;;;;;25.58;18.55;;;19.70;99.90;;;;;;5055483;28;20020;-74
2022/07/11 06:51:21;;;;;;;25.35;19.17;;;20.00;99.90;;;;;;5055928;28;20033;-75
2022/07/11 06:53:47;;;;;;;25.80;18.52;;;20.50;99.90;;;;;;5054155;28;20568;-74
2022/07/11 06:56:12;;;;;;;18.67;16.17;;;20.50;99.90;;;;;;5055483;28;20116;-75
2022/07/11 06:58:38;;;;;;;18.63;16.48;;;20.70;99.90;;;;;;5055460;28;20029;-75
2022/07/11 07:01:06;;;;;;;21.23;16.08;;;20.80;99.90;;;;;;5055769;28;20028;-75
2022/07/11 07:03:33;;;;;;;19.73;15.60;;;20.70;99.90;;;;;;5055210;28;20078;-75
2022/07/11 07:06:00;;;;;;;20.23;14.85;;;20.80;99.90;;;;;;5053948;28;20052;-75
2022/07/11 07:08:28;;;;;;;19.45;14.63;;;20.70;99.90;;;;;;5055438;28;20381;-75
2022/07/11 07:10:54;;;;;;;20.27;13.55;;;20.70;99.90;;;;;;5055464;28;20047;-75
2022/07/11 07:13:23;;;;;;;16.70;14.00;;;20.60;99.90;;;;;;5041584;28;20158;-75
2022/07/11 07:15:50;;;;;;;17.98;13.38;;;20.60;99.90;;;;;;5055254;28;20108;-75
2022/07/11 07:18:15;;;;;;;16.35;11.25;;;20.90;99.90;;;;;;5055012;28;20481;-75
2022/07/11 07:20:41;;;;;;;15.60;12.90;;;20.90;99.90;;;;;;5055370;28;20009;-75
2022/07/11 07:23:08;;;;;;;15.55;11.80;;;21.30;99.90;;;;;;5055066;28;20436;-75
2022/07/11 07:25:34;;;;;;;12.80;10.57;;;21.10;99.90;;;;;;5054096;28;20025;-74
2022/07/11 07:28:00;;;;;;;19.60;12.50;;;20.80;99.90;;;;;;5055013;28;20029;-74
2022/07/11 07:30:26;;;;;;;18.50;11.35;;;20.90;99.90;;;;;;5054706;28;20092;-75
2022/07/11 07:32:52;;;;;;;14.20;12.60;;;21.10;99.90;;;;;;5055058;28;20119;-75
2022/07/11 07:35:17;;;;;;;21.10;12.32;;;21.10;99.90;;;;;;5054583;28;20029;-74
2022/07/11 07:37:43;;;;;;;19.45;10.57;;;21.40;99.90;;;;;;5053889;28;20021;-74
2022/07/11 07:40:09;;;;;;;11.63;9.32;;;21.50;99.90;;;;;;5054664;28;20161;-74
2022/07/11 07:42:35;;;;;;;17.75;11.88;;;21.50;99.90;;;;;;5055048;28;20017;-74
2022/07/11 07:45:01;;;;;;;12.85;10.40;;;21.20;99.90;;;;;;5054432;28;20075;-74
2022/07/11 07:47:28;;;;;;;12.60;10.57;;;21.30;99.90;;;;;;5054697;28;20091;-74
2022/07/11 07:49:54;;;;;;;18.23;11.52;;;21.40;99.90;;;;;;5053329;28;20021;-75
2022/07/11 07:52:19;;;;;;;14.48;10.35;;;21.60;99.90;;;;;;5054548;28;20033;-75
2022/07/11 07:54:46;;;;;;;13.48;9.90;;;21.60;99.90;;;;;;5054554;28;20025;-75
2022/07/11 07:57:12;;;;;;;15.15;9.35;;;21.50;99.90;;;;;;5054574;28;20017;-75
2022/07/11 07:59:38;;;;;;;19.70;12.68;;;21.50;99.90;;;;;;5054262;28;20025;-75
2022/07/11 08:02:04;;;;;;;13.38;10.10;;;21.70;99.90;;;;;;5054372;28;20025;-74
2022/07/11 08:04:30;;;;;;;15.75;10.88;;;21.10;99.90;;;;;;5054314;28;20025;-75
2022/07/11 08:06:59;;;;;;;12.05;9.63;;;21.20;99.90;;;;;;5054509;28;20066;-75
2022/07/11 08:09:24;;;;;;;10.60;7.75;;;21.10;99.90;;;;;;5052843;28;20041;-75
2022/07/11 08:11:50;;;;;;;17.23;7.70;;;21.10;99.90;;;;;;5054455;28;20031;-74
2022/07/11 08:14:16;;;;;;;13.85;8.88;;;21.10;99.90;;;;;;5052660;28;20477;-74
2022/07/11 08:16:42;;;;;;;13.43;7.63;;;21.00;99.90;;;;;;5052988;28;20025;-74
2022/07/11 08:19:09;;;;;;;10.60;7.07;;;21.40;99.90;;;;;;5054066;28;20032;-74
2022/07/11 08:21:35;;;;;;;11.60;6.85;;;21.60;99.90;;;;;;5053170;28;20025;-75
2022/07/11 08:24:02;;;;;;;10.27;7.72;;;21.70;99.90;;;;;;5052801;28;20021;-74
2022/07/11 08:26:28;;;;;;;14.02;7.72;;;21.90;99.90;;;;;;5053858;28;20024;-75
2022/07/11 08:28:54;;;;;;;14.13;7.45;;;22.10;99.90;;;;;;5052683;28;20459;-75
2022/07/11 08:31:19;;;;;;;14.10;7.72;;;22.30;99.90;;;;;;5052446;28;20112;-75
2022/07/11 08:33:46;;;;;;;12.80;6.68;;;22.30;99.90;;;;;;5053920;28;20447;-75
2022/07/11 08:36:12;;;;;;;13.07;6.28;;;22.20;99.90;;;;;;5052710;28;20064;-75
2022/07/11 08:38:39;;;;;;;11.48;6.45;;;22.20;99.90;;;;;;5053725;28;20028;-75
2022/07/11 08:41:05;;;;;;;13.70;6.47;;;22.20;99.90;;;;;;5053686;28;20020;-75
2022/07/11 08:43:32;;;;;;;7.05;5.43;;;22.20;99.90;;;;;;5053256;28;20032;-75
2022/07/11 08:45:59;;;;;;;9.88;5.88;;;22.30;99.90;;;;;;5053593;28;20079;-74
2022/07/11 08:48:25;;;;;;;10.27;5.30;;;22.30;99.90;;;;;;5053549;28;20032;-75
2022/07/11 08:50:52;;;;;;;8.23;5.97;;;22.70;99.90;;;;;;5053356;28;20030;-75
2022/07/11 08:53:18;;;;;;;8.27;4.32;;;22.80;99.90;;;;;;5052991;28;20036;-75
2022/07/11 08:55:45;;;;;;;11.02;3.65;;;23.20;99.90;;;;;;5053287;28;20020;-75
2022/07/11 08:58:12;;;;;;;16.35;3.67;;;22.70;99.90;;;;;;5053115;28;20389;-75
2022/07/11 09:00:38;;;;;;;9.93;3.28;;;23.10;99.90;;;;;;5053295;28;20029;-75
2022/07/11 09:03:05;;;;;;;10.95;3.58;;;23.20;99.90;;;;;;5053150;28;20389;-75
2022/07/11 09:05:32;;;;;;;8.52;3.22;;;23.30;99.90;;;;;;5052070;28;20083;-74
2022/07/11 09:07:58;;;;;;;10.93;3.10;;;23.20;99.90;;;;;;5053071;28;20051;-74
2022/07/11 09:10:24;;;;;;;7.30;3.28;;;22.70;99.90;;;;;;5053068;28;20057;-75
2022/07/11 09:13:12;;;;;;;9.75;3.90;;;22.40;99.90;;;;;;5051633;28;20036;-75
2022/07/11 09:15:43;;;;;;;10.73;3.90;;;23.00;99.90;;;;;;5052056;28;20035;-74
2022/07/11 09:18:35;;;;;;;9.27;4.03;;;23.40;99.90;;;;;;5053126;28;20090;-75
2022/07/11 09:26:43;;;;;;;7.95;3.10;;;24.10;99.90;;;;;;5052628;28;19949;-75
2022/07/11 09:29:12;;;;;;;12.63;3.40;;;24.10;99.90;;;;;;5053148;28;20029;-75
2022/07/11 09:31:39;;;;;;;8.15;3.28;;;24.10;99.90;;;;;;5052508;28;20282;-75
2022/07/11 09:34:10;;;;;;;8.90;3.50;;;24.30;99.90;;;;;;5052506;28;20075;-75
2022/07/11 09:36:38;;;;;;;12.38;4.35;;;24.60;99.90;;;;;;5052587;28;20036;-75
2022/07/11 09:39:06;;;;;;;8.45;3.13;;;24.60;99.90;;;;;;5051590;28;20033;-74
2022/07/11 09:41:33;;;;;;;9.55;3.35;;;24.70;99.90;;;;;;5052218;28;20045;-75
2022/07/11 09:44:09;;;;;;;29.73;6.03;;;24.70;99.90;;;;;;5052954;28;20421;-75
2022/07/11 09:46:36;;;;;;;7.18;2.55;;;24.50;99.90;;;;;;5052647;28;20017;-74
2022/07/11 09:49:03;;;;;;;7.65;3.13;;;24.70;99.90;;;;;;5052278;28;20090;-75
2022/07/11 09:51:29;;;;;;;7.35;2.67;;;24.70;99.90;;;;;;5051450;28;20120;-74
2022/07/11 09:53:57;;;;;;;10.73;2.53;;;25.20;99.90;;;;;;5051358;28;20090;-74
2022/07/11 09:56:39;;;;;;;14.48;2.45;;;25.30;99.90;;;;;;5052252;28;20086;-75
2022/07/11 09:59:07;;;;;;;4.80;2.70;;;25.30;99.90;;;;;;5052518;28;20032;-75
2022/07/11 10:01:33;;;;;;;7.32;2.58;;;25.40;99.90;;;;;;5052623;28;20029;-74
2022/07/11 10:03:59;;;;;;;11.18;2.90;;;25.10;99.90;;;;;;5053506;28;20484;-75
2022/07/11 10:06:26;;;;;;;7.43;2.90;;;25.20;99.90;;;;;;5056481;28;20029;-75
2022/07/11 10:08:52;;;;;;;6.78;2.72;;;25.10;99.90;;;;;;5056586;28;20035;-75
2022/07/11 10:11:19;;;;;;;7.50;2.83;;;25.20;99.90;;;;;;5056399;28;20021;-74
2022/07/11 10:13:45;;;;;;;8.73;2.78;;;25.70;99.90;;;;;;5056460;28;20040;-75
2022/07/11 10:16:34;;;;;;;9.20;2.60;;;26.10;99.90;;;;;;5056363;28;20060;-75
2022/07/11 10:19:24;;;;;;;5.38;3.15;;;26.60;99.90;;;;;;5056368;28;20087;-75
2022/07/11 10:22:10;;;;;;;5.75;2.95;;;27.00;99.90;;;;;;5056230;28;20040;-75
2022/07/11 10:25:02;;;;;;;8.50;3.28;;;27.10;99.40;;;;;;5051836;28;20125;-75
2022/07/11 10:27:33;;;;;;;6.20;3.13;;;26.60;99.90;;;;;;5038507;28;20047;-75
2022/07/11 10:30:01;;;;;;;;;;;26.30;99.90;;;;;;5055444;28;20445;-75
2022/07/11 10:32:27;;;;;;;5.47;2.90;;;26.50;99.60;;;;;;5056026;28;20015;-75
2022/07/11 10:35:15;;;;;;;10.32;4.15;;;26.50;99.70;;;;;;5055954;28;20033;-76
2022/07/11 10:37:51;;;;;;;9.18;3.00;;;26.50;99.60;;;;;;5054936;28;20423;-75
2022/07/11 10:40:40;;;;;;;5.63;3.10;;;26.50;99.90;;;;;;5054346;28;20116;-75
2022/07/11 10:43:06;;;;;;;6.40;3.10;;;25.90;99.90;;;;;;5055639;28;20033;-75
2022/07/11 10:45:56;;;;;;;8.20;3.35;;;26.80;99.70;;;;;;5054759;28;20063;-75
2022/07/11 10:48:24;;;;;;;6.93;2.90;;;27.00;98.00;;;;;;5055605;28;20025;-75
2022/07/11 10:51:04;;;;;;;4.93;3.05;;;26.50;99.70;;;;;;5055945;28;20051;-75
2022/07/11 10:53:48;;;;;;;6.43;3.10;;;26.80;98.90;;;;;;5055220;28;20127;-75
2022/07/11 10:56:36;;;;;;;4.78;2.83;;;26.30;99.90;;;;;;5055585;28;20094;-75
2022/07/11 10:59:15;;;;;;;6.13;3.20;;;26.80;99.30;;;;;;5055444;28;20079;-75
2022/07/11 11:02:05;;;;;;;7.60;2.28;;;27.40;98.90;;;;;;5055862;28;20029;-75
2022/07/11 11:04:42;;;;;;;8.07;2.70;;;28.10;97.90;;;;;;5051496;28;20370;-75
2022/07/11 11:07:40;;;;;;;7.25;2.88;;;28.30;96.20;;;;;;5054440;28;20044;-75
2022/07/11 11:10:18;;;;;;;8.30;2.22;;;28.00;96.30;;;;;;5055346;28;20120;-75
2022/07/11 11:13:06;;;;;;;2.17;1.98;;;27.30;96.30;;;;;;5055276;28;20041;-75
2022/07/11 11:15:42;;;;;;;10.13;1.90;;;26.40;98.10;;;;;;5055040;28;20032;-75
2022/07/11 11:18:23;;;;;;;5.05;2.28;;;26.60;98.50;;;;;;5055242;28;20021;-75
2022/07/11 11:21:06;;;;;;;8.18;2.13;;;27.10;98.40;;;;;;5055501;28;20032;-75
2022/07/11 11:24:01;;;;;;;7.22;2.20;;;27.70;98.20;;;;;;5055039;28;20051;-75
2022/07/11 11:27:02;;;;;;;7.28;2.10;;;27.60;97.20;;;;;;5055146;28;20033;-75
2022/07/11 11:29:31;;;;;;;8.83;2.50;;;27.80;97.00;;;;;;5033117;28;20037;-75
2022/07/11 11:31:59;;;;;;;5.32;2.65;;;27.60;97.90;;;;;;5051072;28;20770;-75
2022/07/11 11:34:25;;;;;;;7.68;2.33;;;27.40;98.30;;;;;;5054956;28;20043;-75
2022/07/11 11:37:00;;;;;;;10.05;2.15;;;27.60;98.80;;;;;;5053526;28;20059;-75
2022/07/11 11:39:34;;;;;;;3.95;2.10;;;27.90;97.70;;;;;;5054955;28;20062;-76
2022/07/11 11:42:09;;;;;;;5.07;2.38;;;28.40;97.70;;;;;;5054954;28;20052;-75
2022/07/11 11:45:12;;;;;;;5.95;2.40;;;28.20;97.10;;;;;;5053634;28;20033;-76
2022/07/11 11:47:50;;;;;;;8.52;2.85;;;28.60;96.30;;;;;;5050386;28;20053;-75
2022/07/11 11:50:16;;;;;;;4.25;1.83;;;28.60;95.70;;;;;;5053449;28;20120;-75
2022/07/11 11:52:42;;;;;;;7.43;2.17;;;29.10;95.70;;;;;;5054508;28;20471;-76
2022/07/11 11:55:11;;;;;;;4.95;1.80;;;28.40;95.30;;;;;;5036723;28;20116;-75
2022/07/11 11:57:39;;;;;;;6.38;2.00;;;28.50;96.50;;;;;;5054702;28;20021;-75
2022/07/11 12:00:22;;;;;;;3.95;1.65;;;29.20;95.70;;;;;;5053378;28;20029;-75
2022/07/11 12:02:48;;;;;;;6.25;2.90;;;29.60;94.60;;;;;;5057725;28;20078;-76
2022/07/11 12:05:13;;;;;;;7.35;2.22;;;28.40;94.90;;;;;;5065263;28;20485;-75
2022/07/11 12:07:42;;;;;;;8.25;2.60;;;29.20;94.80;;;;;;5054141;28;20040;-75
2022/07/11 12:10:08;;;;;;;6.82;1.90;;;29.90;93.80;;;;;;5054360;28;20334;-75
2022/07/11 12:12:47;;;;;;;5.03;1.60;;;29.80;93.60;;;;;;5052873;28;20033;-75
2022/07/11 12:15:25;;;;;;;5.45;1.35;;;29.60;94.20;;;;;;5054416;28;20143;-76
2022/07/11 12:17:52;;;;;;;4.15;1.30;;;29.30;93.80;;;;;;5054335;28;20052;-76
2022/07/11 12:20:41;;;;;;;6.60;1.63;;;28.70;94.60;;;;;;5052628;28;20495;-76
2022/07/11 12:23:09;;;;;;;5.57;1.80;;;29.30;95.20;;;;;;5054051;28;20095;-76
2022/07/11 12:25:35;;;;;;;6.38;2.10;;;29.40;93.50;;;;;;5053987;28;20115;-75
2022/07/11 12:28:01;;;;;;;6.47;2.40;;;28.10;94.60;;;;;;5053349;28;20057;-76
2022/07/11 12:30:26;;;;;;;6.13;1.80;;;28.10;94.60;;;;;;5052807;28;20433;-75
2022/07/11 12:33:05;;;;;;;5.32;2.25;;;29.00;95.10;;;;;;5053985;28;20461;-76
2022/07/11 12:35:31;;;;;;;7.30;2.05;;;28.90;94.00;;;;;;5052340;28;20100;-76
2022/07/11 12:37:56;;;;;;;4.30;2.75;;;29.30;94.70;;;;;;5053989;28;20056;-76
2022/07/11 12:40:22;;;;;;;8.32;2.70;;;29.80;93.70;;;;;;5052498;28;20021;-76
2022/07/11 12:42:48;;;;;;;9.93;2.50;;;29.70;93.40;;;;;;5036083;28;20548;-76
2022/07/11 12:45:15;;;;;;;4.40;2.50;;;30.40;93.40;;;;;;5052283;28;20060;-76